createdAt,value
2017-04-07T00:00:22.048Z,0
2017-04-07T00:01:35.284Z,0
2017-04-07T00:02:48.528Z,0
2017-04-07T00:04:01.778Z,0
2017-04-07T00:05:14.999Z,0
2017-04-07T00:06:28.257Z,0
2017-04-07T00:07:40.990Z,0
2017-04-07T00:08:54.248Z,0
2017-04-07T00:10:07.495Z,0
2017-04-07T00:11:20.240Z,0
2017-04-07T00:12:33.479Z,0
2017-04-07T00:13:46.708Z,0
2017-04-07T00:14:59.959Z,0
2017-04-07T00:16:12.737Z,0
2017-04-07T00:17:25.966Z,0
2017-04-07T00:18:39.234Z,0
2017-04-07T00:19:51.951Z,0
2017-04-07T00:21:05.204Z,0
2017-04-07T00:22:17.939Z,0
2017-04-07T00:23:31.169Z,0
2017-04-07T00:24:44.401Z,0
2017-04-07T00:25:57.619Z,0
2017-04-07T00:27:11.085Z,0
2017-04-07T00:28:24.355Z,0
2017-04-07T00:29:37.636Z,0
2017-04-07T00:30:50.923Z,0
2017-04-07T00:32:04.163Z,0
2017-04-07T00:33:17.416Z,0
2017-04-07T00:34:29.673Z,0
2017-04-07T00:35:42.937Z,0
2017-04-07T00:36:56.216Z,0
2017-04-07T00:38:08.972Z,0
2017-04-07T00:39:22.215Z,0
2017-04-07T00:40:35.503Z,0
2017-04-07T00:41:48.779Z,0
2017-04-07T00:43:02.066Z,0
2017-04-07T00:44:14.806Z,0
2017-04-07T00:45:27.580Z,0
2017-04-07T00:46:40.841Z,0
2017-04-07T00:47:54.078Z,0
2017-04-07T00:49:07.334Z,0
2017-04-07T00:50:20.618Z,0
2017-04-07T00:51:33.899Z,0
2017-04-07T00:52:47.157Z,0
2017-04-07T00:53:59.889Z,0
2017-04-07T00:55:13.149Z,0
2017-04-07T00:56:26.411Z,0
2017-04-07T00:57:39.145Z,0
2017-04-07T00:58:52.401Z,0
2017-04-07T01:00:05.628Z,0
2017-04-07T01:01:18.923Z,0
2017-04-07T01:02:32.160Z,0
2017-04-07T01:03:45.391Z,0
2017-04-07T01:04:58.644Z,0
2017-04-07T01:06:11.858Z,0
2017-04-07T01:07:25.080Z,0
2017-04-07T01:08:37.820Z,0
2017-04-07T01:09:51.060Z,0
2017-04-07T01:11:04.288Z,0
2017-04-07T01:12:17.555Z,0
2017-04-07T01:13:30.804Z,0
2017-04-07T01:14:44.082Z,0
2017-04-07T01:15:57.337Z,0
2017-04-07T01:17:10.112Z,0
2017-04-07T01:18:22.835Z,0
2017-04-07T01:19:36.079Z,0
2017-04-07T01:20:49.315Z,0
2017-04-07T01:22:02.588Z,0
2017-04-07T01:23:15.860Z,0
2017-04-07T01:24:29.120Z,0
2017-04-07T01:25:41.827Z,0
2017-04-07T01:26:55.112Z,0
2017-04-07T01:28:08.370Z,0
2017-04-07T01:29:21.598Z,0
2017-04-07T01:30:34.852Z,0
2017-04-07T01:31:48.104Z,0
2017-04-07T01:33:01.342Z,0
2017-04-07T01:34:14.634Z,0
2017-04-07T01:35:27.850Z,0
2017-04-07T01:36:41.094Z,0
2017-04-07T01:37:53.927Z,0
2017-04-07T01:39:07.155Z,0
2017-04-07T01:40:20.408Z,0
2017-04-07T01:41:33.624Z,0
2017-04-07T01:42:46.871Z,0
2017-04-07T01:44:00.111Z,0
2017-04-07T01:45:13.353Z,0
2017-04-07T01:46:26.640Z,0
2017-04-07T01:47:39.910Z,0
2017-04-07T01:48:53.171Z,0
2017-04-07T01:50:06.422Z,0
2017-04-07T01:51:19.153Z,0
2017-04-07T01:52:32.357Z,0
2017-04-07T01:53:45.127Z,0
2017-04-07T01:54:58.401Z,0
2017-04-07T01:56:11.673Z,0
2017-04-07T01:57:24.945Z,0
2017-04-07T01:58:38.193Z,0
2017-04-07T01:59:51.424Z,0
2017-04-07T02:01:04.676Z,0
2017-04-07T02:02:17.950Z,0
2017-04-07T02:03:31.244Z,0
2017-04-07T02:04:43.974Z,0
2017-04-07T02:05:56.728Z,0
2017-04-07T02:07:10.009Z,0
2017-04-07T02:08:23.305Z,0
2017-04-07T02:09:36.559Z,0
2017-04-07T02:10:48.761Z,0
2017-04-07T02:12:00.986Z,0
2017-04-07T02:13:14.233Z,0
2017-04-07T02:14:26.950Z,0
2017-04-07T02:15:40.205Z,0
2017-04-07T02:16:53.439Z,0
2017-04-07T02:18:06.663Z,0
2017-04-07T02:19:19.923Z,0
2017-04-07T02:20:33.196Z,0
2017-04-07T02:21:46.456Z,0
2017-04-07T02:22:59.676Z,0
2017-04-07T02:24:12.923Z,0
2017-04-07T02:25:26.215Z,0
2017-04-07T02:26:39.469Z,0
2017-04-07T02:27:52.737Z,0
2017-04-07T02:29:04.965Z,0
2017-04-07T02:30:17.711Z,0
2017-04-07T02:31:30.476Z,0
2017-04-07T02:32:43.762Z,0
2017-04-07T02:33:57.003Z,0
2017-04-07T02:35:09.757Z,0
2017-04-07T02:36:23.041Z,0
2017-04-07T02:37:36.317Z,0
2017-04-07T02:38:49.583Z,0
2017-04-07T02:40:02.894Z,0
2017-04-07T02:41:16.142Z,0
2017-04-07T02:42:29.368Z,0
2017-04-07T02:43:42.657Z,0
2017-04-07T02:44:55.882Z,0
2017-04-07T02:46:09.170Z,0
2017-04-07T02:47:22.408Z,0
2017-04-07T02:48:35.137Z,0
2017-04-07T02:49:48.422Z,0
2017-04-07T02:51:01.672Z,0
2017-04-07T02:52:14.972Z,0
2017-04-07T02:53:27.689Z,0
2017-04-07T02:54:40.925Z,0
2017-04-07T02:55:54.184Z,0
2017-04-07T02:57:06.941Z,0
2017-04-07T02:58:20.204Z,0
2017-04-07T02:59:33.472Z,0
2017-04-07T03:00:46.201Z,0
2017-04-07T03:01:59.498Z,0
2017-04-07T03:03:12.775Z,0
2017-04-07T03:04:26.054Z,0
2017-04-07T03:05:39.311Z,0
2017-04-07T03:06:52.586Z,0
2017-04-07T03:08:05.889Z,0
2017-04-07T03:09:18.112Z,0
2017-04-07T03:10:31.353Z,0
2017-04-07T03:11:44.625Z,0
2017-04-07T03:12:57.925Z,0
2017-04-07T03:14:11.182Z,0
2017-04-07T03:15:24.435Z,0
2017-04-07T03:16:37.188Z,0
2017-04-07T03:17:50.484Z,0
2017-04-07T03:19:03.739Z,0
2017-04-07T03:20:16.996Z,0
2017-04-07T03:21:29.769Z,0
2017-04-07T03:22:43.032Z,0
2017-04-07T03:23:56.282Z,0
2017-04-07T03:25:09.018Z,0
2017-04-07T03:26:22.296Z,0
2017-04-07T03:27:35.570Z,0
2017-04-07T03:28:48.340Z,0
2017-04-07T03:30:01.633Z,0
2017-04-07T03:31:14.889Z,0
2017-04-07T03:32:27.648Z,0
2017-04-07T03:33:40.912Z,0
2017-04-07T03:34:54.146Z,0
2017-04-07T03:36:06.876Z,0
2017-04-07T03:37:20.147Z,0
2017-04-07T03:38:32.889Z,0
2017-04-07T03:39:46.154Z,0
2017-04-07T03:40:59.424Z,0
2017-04-07T03:42:12.178Z,0
2017-04-07T03:43:25.423Z,0
2017-04-07T03:44:38.145Z,0
2017-04-07T03:45:51.368Z,0
2017-04-07T03:47:04.630Z,0
2017-04-07T03:48:18.051Z,0
2017-04-07T03:49:31.284Z,0
2017-04-07T03:50:44.065Z,0
2017-04-07T03:51:57.414Z,0
2017-04-07T03:53:10.680Z,0
2017-04-07T03:54:23.923Z,0
2017-04-07T03:55:37.168Z,0
2017-04-07T03:56:50.440Z,0
2017-04-07T03:58:03.692Z,0
2017-04-07T03:59:16.957Z,0
2017-04-07T04:00:30.211Z,0
2017-04-07T04:01:43.449Z,0
2017-04-07T04:02:56.735Z,0
2017-04-07T04:04:10.023Z,0
2017-04-07T04:05:23.290Z,0
2017-04-07T04:06:36.570Z,0
2017-04-07T04:07:49.809Z,0
2017-04-07T04:09:03.109Z,0
2017-04-07T04:10:16.387Z,0
2017-04-07T04:11:29.638Z,0
2017-04-07T04:12:42.391Z,0
2017-04-07T04:13:55.642Z,0
2017-04-07T04:15:08.347Z,0
2017-04-07T04:16:21.574Z,0
2017-04-07T04:17:34.816Z,0
2017-04-07T04:18:48.102Z,0
2017-04-07T04:20:01.345Z,0
2017-04-07T04:21:14.597Z,0
2017-04-07T04:22:27.870Z,0
2017-04-07T04:23:41.093Z,0
2017-04-07T04:24:54.384Z,0
2017-04-07T04:26:07.660Z,0
2017-04-07T04:27:20.897Z,0
2017-04-07T04:28:34.143Z,0
2017-04-07T04:29:47.405Z,0
2017-04-07T04:31:00.631Z,0
2017-04-07T04:32:13.877Z,0
2017-04-07T04:33:27.115Z,0
2017-04-07T04:34:40.360Z,0
2017-04-07T04:35:53.646Z,0
2017-04-07T04:37:06.369Z,0
2017-04-07T04:38:19.104Z,0
2017-04-07T04:39:31.881Z,0
2017-04-07T04:40:45.115Z,0
2017-04-07T04:41:58.380Z,0
2017-04-07T04:43:11.620Z,0
2017-04-07T04:44:24.886Z,0
2017-04-07T04:45:37.635Z,0
2017-04-07T04:46:50.870Z,0
2017-04-07T04:48:04.193Z,0
2017-04-07T04:49:17.505Z,0
2017-04-07T04:50:30.712Z,0
2017-04-07T04:51:43.934Z,0
2017-04-07T04:52:56.659Z,0
2017-04-07T04:54:09.955Z,0
2017-04-07T04:55:22.655Z,0
2017-04-07T04:56:35.906Z,0
2017-04-07T04:57:49.170Z,0
2017-04-07T04:59:02.435Z,0
2017-04-07T05:00:15.158Z,0
2017-04-07T05:01:28.407Z,0
2017-04-07T05:02:41.650Z,0
2017-04-07T05:03:54.905Z,0
2017-04-07T05:05:08.169Z,0
2017-04-07T05:06:21.423Z,0
2017-04-07T05:07:34.688Z,0
2017-04-07T05:08:47.937Z,0
2017-04-07T05:10:01.187Z,0
2017-04-07T05:11:13.909Z,0
2017-04-07T05:12:26.638Z,0
2017-04-07T05:13:39.354Z,0
2017-04-07T05:14:52.094Z,0
2017-04-07T05:16:05.324Z,0
2017-04-07T05:17:18.076Z,0
2017-04-07T05:18:31.553Z,0
2017-04-07T05:19:44.802Z,0
2017-04-07T05:20:58.083Z,0
2017-04-07T05:22:11.336Z,0
2017-04-07T05:23:24.565Z,0
2017-04-07T05:24:37.797Z,0
2017-04-07T05:25:51.043Z,0
2017-04-07T05:27:03.793Z,0
2017-04-07T05:28:17.025Z,0
2017-04-07T05:29:30.269Z,0
2017-04-07T05:30:43.556Z,0
2017-04-07T05:31:56.817Z,0
2017-04-07T05:33:09.566Z,0
2017-04-07T05:34:22.787Z,0
2017-04-07T05:35:36.030Z,0
2017-04-07T05:36:49.323Z,0
2017-04-07T05:38:02.582Z,0
2017-04-07T05:39:15.850Z,0
2017-04-07T05:40:29.097Z,0
2017-04-07T05:41:42.373Z,0
2017-04-07T05:42:55.656Z,0
2017-04-07T05:44:08.903Z,0
2017-04-07T05:45:22.170Z,0
2017-04-07T05:46:35.480Z,0
2017-04-07T05:47:48.699Z,0
2017-04-07T05:49:01.960Z,0
2017-04-07T05:50:15.268Z,0
2017-04-07T05:51:28.551Z,0
2017-04-07T05:52:41.770Z,0
2017-04-07T05:53:55.013Z,0
2017-04-07T05:55:08.284Z,0
2017-04-07T05:56:21.547Z,0
2017-04-07T05:57:34.774Z,0
2017-04-07T05:58:48.006Z,0
2017-04-07T06:00:01.247Z,0
2017-04-07T06:01:13.985Z,0
2017-04-07T06:02:27.245Z,0
2017-04-07T06:03:40.492Z,0
2017-04-07T06:04:53.751Z,0
2017-04-07T06:06:07.031Z,0
2017-04-07T06:07:20.283Z,0
2017-04-07T06:08:33.545Z,0
2017-04-07T06:09:46.769Z,0
2017-04-07T06:10:59.977Z,0
2017-04-07T06:12:12.240Z,0
2017-04-07T06:13:25.520Z,0
2017-04-07T06:14:38.781Z,0
2017-04-07T06:15:52.022Z,0
2017-04-07T06:17:05.301Z,0
2017-04-07T06:18:18.556Z,0
2017-04-07T06:19:31.806Z,0
2017-04-07T06:20:44.529Z,0
2017-04-07T06:21:57.762Z,0
2017-04-07T06:23:10.530Z,0
2017-04-07T06:24:23.767Z,0
2017-04-07T06:25:37.040Z,0
2017-04-07T06:26:49.779Z,0
2017-04-07T06:28:03.013Z,0
2017-04-07T06:29:16.285Z,0
2017-04-07T06:30:29.592Z,0
2017-04-07T06:31:42.343Z,0
2017-04-07T06:32:55.607Z,0
2017-04-07T06:34:08.843Z,0
2017-04-07T06:35:22.086Z,0
2017-04-07T06:36:35.388Z,0
2017-04-07T06:37:48.646Z,0
2017-04-07T06:39:01.411Z,0
2017-04-07T06:40:14.147Z,0
2017-04-07T06:41:27.422Z,0
2017-04-07T06:42:40.138Z,0
2017-04-07T06:43:53.397Z,0
2017-04-07T06:45:05.605Z,0
2017-04-07T06:46:18.853Z,0
2017-04-07T06:47:32.101Z,0
2017-04-07T06:48:45.344Z,0
2017-04-07T06:49:58.601Z,0
2017-04-07T06:51:11.842Z,0
2017-04-07T06:52:24.591Z,0
2017-04-07T06:53:37.856Z,0
2017-04-07T06:54:51.087Z,0
2017-04-07T06:56:04.328Z,0
2017-04-07T06:57:17.548Z,0
2017-04-07T06:58:30.758Z,0
2017-04-07T06:59:44.013Z,0
2017-04-07T07:00:57.299Z,0
2017-04-07T07:02:10.558Z,0
2017-04-07T07:03:23.824Z,0
2017-04-07T07:04:37.062Z,0
2017-04-07T07:05:49.778Z,0
2017-04-07T07:07:03.051Z,0
2017-04-07T07:08:15.803Z,0
2017-04-07T07:09:29.060Z,0
2017-04-07T07:10:41.805Z,0
2017-04-07T07:11:55.037Z,0
2017-04-07T07:13:08.279Z,0
2017-04-07T07:14:21.563Z,0
2017-04-07T07:15:34.314Z,0
2017-04-07T07:16:47.540Z,0
2017-04-07T07:18:00.782Z,0
2017-04-07T07:19:13.554Z,0
2017-04-07T07:20:26.823Z,0
2017-04-07T07:21:39.545Z,0
2017-04-07T07:22:52.793Z,0
2017-04-07T07:24:06.028Z,0
2017-04-07T07:25:19.267Z,0
2017-04-07T07:26:32.481Z,0
2017-04-07T07:27:45.725Z,0
2017-04-07T07:28:58.493Z,0
2017-04-07T07:30:11.200Z,0
2017-04-07T07:31:24.441Z,0
2017-04-07T07:32:37.150Z,0
2017-04-07T07:33:50.380Z,0
2017-04-07T07:35:03.605Z,0
2017-04-07T07:36:16.847Z,0
2017-04-07T07:37:30.118Z,0
2017-04-07T07:38:42.872Z,0
2017-04-07T07:39:56.159Z,0
2017-04-07T07:41:09.386Z,0
2017-04-07T07:42:23.150Z,0
2017-04-07T07:43:35.837Z,0
2017-04-07T07:44:48.574Z,0
2017-04-07T07:46:01.831Z,0
2017-04-07T07:47:15.075Z,0
2017-04-07T07:48:27.823Z,0
2017-04-07T07:49:40.548Z,0
2017-04-07T07:50:53.785Z,0
2017-04-07T07:52:07.064Z,0
2017-04-07T07:53:20.310Z,0
2017-04-07T07:54:33.557Z,0
2017-04-07T07:55:46.850Z,0
2017-04-07T07:57:00.106Z,0
2017-04-07T07:58:12.862Z,0
2017-04-07T07:59:26.124Z,0
2017-04-07T08:00:39.401Z,0
2017-04-07T08:01:52.190Z,0
2017-04-07T08:03:05.421Z,0
2017-04-07T08:04:18.179Z,0
2017-04-07T08:05:31.406Z,0
2017-04-07T08:06:44.126Z,0
2017-04-07T08:07:57.354Z,0
2017-04-07T08:09:10.597Z,0
2017-04-07T08:10:23.341Z,0
2017-04-07T08:11:36.650Z,0
2017-04-07T08:12:49.914Z,0
2017-04-07T08:14:03.146Z,0
2017-04-07T08:15:16.404Z,0
2017-04-07T08:16:29.656Z,0
2017-04-07T08:17:42.901Z,0
2017-04-07T08:18:56.133Z,0
2017-04-07T08:20:08.345Z,0
2017-04-07T08:21:20.594Z,0
2017-04-07T08:22:33.824Z,0
2017-04-07T08:23:47.055Z,0
2017-04-07T08:25:00.308Z,0
2017-04-07T08:26:13.061Z,0
2017-04-07T08:27:25.792Z,0
2017-04-07T08:28:39.037Z,0
2017-04-07T08:29:52.323Z,0
2017-04-07T08:31:05.552Z,0
2017-04-07T08:32:17.762Z,0
2017-04-07T08:33:30.993Z,0
2017-04-07T08:34:44.218Z,0
2017-04-07T08:35:57.476Z,0
2017-04-07T08:37:10.739Z,0
2017-04-07T08:38:24.039Z,0
2017-04-07T08:39:37.305Z,0
2017-04-07T08:40:50.020Z,0
2017-04-07T08:42:03.273Z,0
2017-04-07T08:43:16.518Z,0
2017-04-07T08:44:29.806Z,0
2017-04-07T08:45:42.037Z,0
2017-04-07T08:46:55.307Z,0
2017-04-07T08:48:08.527Z,0
2017-04-07T08:49:21.744Z,0
2017-04-07T08:50:35.017Z,0
2017-04-07T08:51:47.734Z,0
2017-04-07T08:53:00.513Z,0
2017-04-07T08:54:13.248Z,0
2017-04-07T08:55:25.983Z,0
2017-04-07T08:56:39.272Z,0
2017-04-07T08:57:52.511Z,0
2017-04-07T08:59:05.233Z,0
2017-04-07T09:00:18.474Z,0
2017-04-07T09:01:31.174Z,0
2017-04-07T09:02:44.402Z,0
2017-04-07T09:03:56.609Z,0
2017-04-07T09:05:09.882Z,0
2017-04-07T09:06:22.664Z,0
2017-04-07T09:07:35.891Z,0
2017-04-07T09:08:49.121Z,0
2017-04-07T09:10:02.381Z,0
2017-04-07T09:11:15.607Z,0
2017-04-07T09:12:28.363Z,0
2017-04-07T09:13:41.077Z,0
2017-04-07T09:14:54.299Z,0
2017-04-07T09:16:07.537Z,5
2017-04-07T09:17:20.785Z,5
2017-04-07T09:18:34.033Z,5
2017-04-07T09:19:47.300Z,5
2017-04-07T09:21:00.067Z,5
2017-04-07T09:22:13.359Z,10
2017-04-07T09:23:26.075Z,10
2017-04-07T09:24:38.822Z,10
2017-04-07T09:25:52.057Z,10
2017-04-07T09:27:05.305Z,10
2017-04-07T09:28:18.551Z,10
2017-04-07T09:29:31.818Z,10
2017-04-07T09:30:44.571Z,15
2017-04-07T09:31:57.881Z,15
2017-04-07T09:33:11.135Z,15
2017-04-07T09:34:24.401Z,20
2017-04-07T09:35:37.171Z,20
2017-04-07T09:36:50.410Z,25
2017-04-07T09:38:03.128Z,25
2017-04-07T09:39:16.351Z,25
2017-04-07T09:40:29.633Z,25
2017-04-07T09:41:42.896Z,25
2017-04-07T09:42:56.154Z,30
2017-04-07T09:44:09.515Z,30
2017-04-07T09:45:22.391Z,35
2017-04-07T09:46:35.630Z,35
2017-04-07T09:47:47.854Z,35
2017-04-07T09:49:01.131Z,35
2017-04-07T09:50:14.398Z,35
2017-04-07T09:51:27.663Z,35
2017-04-07T09:52:40.935Z,35
2017-04-07T09:53:54.182Z,40
2017-04-07T09:55:07.449Z,45
2017-04-07T09:56:19.646Z,50
2017-04-07T09:57:32.906Z,50
2017-04-07T09:58:45.623Z,55
2017-04-07T09:59:58.872Z,60
2017-04-07T10:01:12.148Z,70
2017-04-07T10:02:25.413Z,80
2017-04-07T10:03:38.673Z,80
2017-04-07T10:04:51.918Z,85
2017-04-07T10:06:04.662Z,90
2017-04-07T10:07:17.421Z,95
2017-04-07T10:08:30.154Z,105
2017-04-07T10:09:42.903Z,115
2017-04-07T10:10:56.195Z,125
2017-04-07T10:12:08.970Z,135
2017-04-07T10:13:21.700Z,140
2017-04-07T10:14:34.450Z,120
2017-04-07T10:15:46.648Z,105
2017-04-07T10:16:59.382Z,105
2017-04-07T10:18:12.705Z,115
2017-04-07T10:19:25.452Z,120
2017-04-07T10:20:38.710Z,135
2017-04-07T10:21:52.068Z,145
2017-04-07T10:23:05.316Z,165
2017-04-07T10:24:18.585Z,170
2017-04-07T10:25:31.859Z,175
2017-04-07T10:26:45.096Z,200
2017-04-07T10:27:58.334Z,230
2017-04-07T10:29:11.596Z,245
2017-04-07T10:30:24.839Z,260
2017-04-07T10:31:38.057Z,280
2017-04-07T10:32:50.812Z,300
2017-04-07T10:34:04.080Z,340
2017-04-07T10:35:17.303Z,370
2017-04-07T10:36:30.564Z,390
2017-04-07T10:37:43.285Z,390
2017-04-07T10:38:56.009Z,340
2017-04-07T10:40:09.263Z,280
2017-04-07T10:41:22.013Z,260
2017-04-07T10:42:35.269Z,290
2017-04-07T10:43:48.523Z,330
2017-04-07T10:45:01.780Z,335
2017-04-07T10:46:15.025Z,305
2017-04-07T10:47:28.316Z,260
2017-04-07T10:48:41.066Z,225
2017-04-07T10:49:53.826Z,195
2017-04-07T10:51:07.062Z,195
2017-04-07T10:52:20.328Z,235
2017-04-07T10:53:33.544Z,310
2017-04-07T10:54:46.793Z,385
2017-04-07T10:55:59.574Z,430
2017-04-07T10:57:12.849Z,465
2017-04-07T10:58:26.113Z,535
2017-04-07T10:59:38.831Z,620
2017-04-07T11:00:51.035Z,610
2017-04-07T11:02:03.759Z,565
2017-04-07T11:03:17.020Z,575
2017-04-07T11:04:30.258Z,480
2017-04-07T11:05:43.511Z,445
2017-04-07T11:06:56.754Z,530
2017-04-07T11:08:10.007Z,575
2017-04-07T11:09:23.261Z,580
2017-04-07T11:10:36.523Z,625
2017-04-07T11:11:49.800Z,670
2017-04-07T11:13:02.555Z,730
2017-04-07T11:14:15.820Z,820
2017-04-07T11:15:29.070Z,895
2017-04-07T11:16:42.309Z,860
2017-04-07T11:17:55.569Z,770
2017-04-07T11:19:08.824Z,725
2017-04-07T11:20:22.110Z,725
2017-04-07T11:21:35.346Z,740
2017-04-07T11:22:48.628Z,760
2017-04-07T11:24:01.403Z,775
2017-04-07T11:25:14.147Z,805
2017-04-07T11:26:26.861Z,790
2017-04-07T11:27:40.087Z,705
2017-04-07T11:28:53.313Z,610
2017-04-07T11:30:06.029Z,560
2017-04-07T11:31:18.779Z,490
2017-04-07T11:32:31.507Z,450
2017-04-07T11:33:44.239Z,460
2017-04-07T11:34:57.016Z,520
2017-04-07T11:36:10.273Z,505
2017-04-07T11:37:23.030Z,425
2017-04-07T11:38:35.775Z,405
2017-04-07T11:39:49.063Z,420
2017-04-07T11:41:02.328Z,425
2017-04-07T11:42:15.072Z,405
2017-04-07T11:43:28.306Z,425
2017-04-07T11:44:41.913Z,540
2017-04-07T11:45:55.173Z,800
2017-04-07T11:47:08.424Z,1055
2017-04-07T11:48:21.705Z,1325
2017-04-07T11:49:34.917Z,1585
2017-04-07T11:50:47.670Z,1665
2017-04-07T11:52:00.392Z,1485
2017-04-07T11:53:13.653Z,1385
2017-04-07T11:54:26.420Z,1215
2017-04-07T11:55:39.196Z,860
2017-04-07T11:56:52.460Z,660
2017-04-07T11:58:05.706Z,540
2017-04-07T11:59:17.971Z,480
2017-04-07T12:00:31.229Z,420
2017-04-07T12:01:44.473Z,400
2017-04-07T12:02:57.246Z,410
2017-04-07T12:04:09.986Z,435
2017-04-07T12:05:22.714Z,440
2017-04-07T12:06:35.985Z,425
2017-04-07T12:07:49.287Z,410
2017-04-07T12:09:02.536Z,385
2017-04-07T12:10:15.497Z,385
2017-04-07T12:11:28.637Z,410
2017-04-07T12:12:41.360Z,460
2017-04-07T12:13:54.571Z,490
2017-04-07T12:15:07.306Z,500
2017-04-07T12:16:20.574Z,505
2017-04-07T12:17:33.311Z,490
2017-04-07T12:18:46.749Z,505
2017-04-07T12:20:00.003Z,530
2017-04-07T12:21:12.832Z,530
2017-04-07T12:22:26.161Z,520
2017-04-07T12:23:39.429Z,520
2017-04-07T12:24:52.658Z,520
2017-04-07T12:26:05.982Z,535
2017-04-07T12:27:19.228Z,515
2017-04-07T12:28:32.495Z,500
2017-04-07T12:29:45.785Z,525
2017-04-07T12:30:58.537Z,555
2017-04-07T12:32:11.829Z,590
2017-04-07T12:33:25.076Z,660
2017-04-07T12:34:38.787Z,785
2017-04-07T12:35:51.443Z,920
2017-04-07T12:37:04.716Z,1000
2017-04-07T12:38:17.993Z,1045
2017-04-07T12:39:30.850Z,1090
2017-04-07T12:40:44.101Z,1065
2017-04-07T12:41:56.882Z,960
2017-04-07T12:43:10.143Z,895
2017-04-07T12:44:23.434Z,880
2017-04-07T12:45:36.697Z,880
2017-04-07T12:46:50.184Z,870
2017-04-07T12:48:03.435Z,850
2017-04-07T12:49:16.226Z,840
2017-04-07T12:50:29.207Z,815
2017-04-07T12:51:42.491Z,770
2017-04-07T12:52:55.756Z,730
2017-04-07T12:54:08.481Z,685
2017-04-07T12:55:21.212Z,630
2017-04-07T12:56:34.439Z,595
2017-04-07T12:57:47.676Z,610
2017-04-07T12:59:00.917Z,600
2017-04-07T13:00:13.671Z,575
2017-04-07T13:01:26.452Z,580
2017-04-07T13:02:39.676Z,585
2017-04-07T13:03:52.429Z,610
2017-04-07T13:05:05.731Z,655
2017-04-07T13:06:18.964Z,670
2017-04-07T13:07:32.234Z,675
2017-04-07T13:08:45.491Z,655
2017-04-07T13:09:58.206Z,660
2017-04-07T13:11:10.477Z,695
2017-04-07T13:12:23.193Z,725
2017-04-07T13:13:36.478Z,725
2017-04-07T13:14:49.237Z,685
2017-04-07T13:16:02.021Z,635
2017-04-07T13:17:15.303Z,615
2017-04-07T13:18:28.556Z,615
2017-04-07T13:19:41.823Z,610
2017-04-07T13:20:55.068Z,625
2017-04-07T13:22:08.353Z,680
2017-04-07T13:23:21.638Z,770
2017-04-07T13:24:35.298Z,845
2017-04-07T13:25:48.648Z,870
2017-04-07T13:27:01.930Z,870
2017-04-07T13:28:14.681Z,850
2017-04-07T13:29:27.419Z,815
2017-04-07T13:30:40.687Z,770
2017-04-07T13:31:53.936Z,735
2017-04-07T13:33:07.228Z,655
2017-04-07T13:34:20.514Z,590
2017-04-07T13:35:33.774Z,565
2017-04-07T13:36:46.518Z,570
2017-04-07T13:37:59.250Z,615
2017-04-07T13:39:12.018Z,690
2017-04-07T13:40:25.285Z,760
2017-04-07T13:41:38.515Z,775
2017-04-07T13:42:51.733Z,760
2017-04-07T13:44:04.984Z,730
2017-04-07T13:45:18.255Z,690
2017-04-07T13:46:31.021Z,690
2017-04-07T13:47:44.294Z,705
2017-04-07T13:48:57.027Z,720
2017-04-07T13:50:10.273Z,730
2017-04-07T13:51:23.526Z,770
2017-04-07T13:52:36.290Z,825
2017-04-07T13:53:49.574Z,855
2017-04-07T13:55:02.810Z,835
2017-04-07T13:56:16.067Z,810
2017-04-07T13:57:29.297Z,775
2017-04-07T13:58:42.555Z,660
2017-04-07T13:59:55.800Z,560
2017-04-07T14:01:08.567Z,500
2017-04-07T14:02:21.846Z,495
2017-04-07T14:03:34.614Z,530
2017-04-07T14:04:47.843Z,575
2017-04-07T14:06:01.077Z,600
2017-04-07T14:07:13.828Z,610
2017-04-07T14:08:27.095Z,585
2017-04-07T14:09:38.824Z,560
2017-04-07T14:10:52.071Z,540
2017-04-07T14:12:05.322Z,520
2017-04-07T14:13:18.609Z,505
2017-04-07T14:14:31.868Z,515
2017-04-07T14:15:45.156Z,505
2017-04-07T14:16:58.412Z,490
2017-04-07T14:18:10.662Z,470
2017-04-07T14:19:23.901Z,470
2017-04-07T14:20:37.143Z,505
2017-04-07T14:21:49.892Z,570
2017-04-07T14:23:02.645Z,625
2017-04-07T14:24:15.396Z,650
2017-04-07T14:25:28.676Z,580
2017-04-07T14:26:41.911Z,525
2017-04-07T14:27:54.653Z,500
2017-04-07T14:29:07.382Z,470
2017-04-07T14:30:20.650Z,435
2017-04-07T14:31:33.928Z,385
2017-04-07T14:32:46.700Z,360
2017-04-07T14:33:59.452Z,345
2017-04-07T14:35:12.716Z,335
2017-04-07T14:36:25.944Z,335
2017-04-07T14:37:39.201Z,340
2017-04-07T14:38:51.950Z,365
2017-04-07T14:40:05.241Z,400
2017-04-07T14:41:18.008Z,465
2017-04-07T14:42:30.740Z,570
2017-04-07T14:43:43.987Z,720
2017-04-07T14:44:56.728Z,880
2017-04-07T14:46:09.998Z,1015
2017-04-07T14:47:23.254Z,1095
2017-04-07T14:48:36.534Z,1070
2017-04-07T14:49:49.804Z,995
2017-04-07T14:51:03.074Z,855
2017-04-07T14:52:16.383Z,760
2017-04-07T14:53:29.120Z,735
2017-04-07T14:54:42.371Z,770
2017-04-07T14:55:55.653Z,840
2017-04-07T14:57:08.430Z,845
2017-04-07T14:58:21.687Z,850
2017-04-07T14:59:34.933Z,930
2017-04-07T15:00:47.704Z,1015
2017-04-07T15:02:00.963Z,980
2017-04-07T15:03:14.243Z,900
2017-04-07T15:04:27.485Z,855
2017-04-07T15:05:40.758Z,765
2017-04-07T15:06:53.973Z,660
2017-04-07T15:08:07.255Z,610
2017-04-07T15:09:20.534Z,625
2017-04-07T15:10:33.274Z,650
2017-04-07T15:11:46.033Z,645
2017-04-07T15:12:59.281Z,610
2017-04-07T15:14:12.019Z,600
2017-04-07T15:15:25.305Z,625
2017-04-07T15:16:38.559Z,600
2017-04-07T15:17:51.309Z,485
2017-04-07T15:19:04.599Z,465
2017-04-07T15:20:17.353Z,515
2017-04-07T15:21:30.627Z,610
2017-04-07T15:22:43.415Z,720
2017-04-07T15:23:56.698Z,805
2017-04-07T15:25:09.974Z,790
2017-04-07T15:26:23.260Z,680
2017-04-07T15:27:36.497Z,570
2017-04-07T15:28:49.251Z,505
2017-04-07T15:30:02.003Z,480
2017-04-07T15:31:15.313Z,470
2017-04-07T15:32:28.532Z,505
2017-04-07T15:33:40.745Z,575
2017-04-07T15:34:53.520Z,645
2017-04-07T15:36:06.250Z,720
2017-04-07T15:37:19.486Z,745
2017-04-07T15:38:32.722Z,650
2017-04-07T15:39:45.466Z,580
2017-04-07T15:40:58.738Z,520
2017-04-07T15:42:12.032Z,465
2017-04-07T15:43:25.325Z,445
2017-04-07T15:44:38.053Z,445
2017-04-07T15:45:51.364Z,455
2017-04-07T15:47:04.646Z,475
2017-04-07T15:48:17.939Z,500
2017-04-07T15:49:31.188Z,530
2017-04-07T15:50:44.446Z,575
2017-04-07T15:51:57.706Z,625
2017-04-07T15:53:10.952Z,680
2017-04-07T15:54:23.683Z,795
2017-04-07T15:55:36.438Z,940
2017-04-07T15:56:49.709Z,1125
2017-04-07T15:58:02.994Z,1160
2017-04-07T15:59:16.255Z,1135
2017-04-07T16:00:28.985Z,1120
2017-04-07T16:01:42.259Z,1180
2017-04-07T16:02:55.513Z,1065
2017-04-07T16:04:08.812Z,1040
2017-04-07T16:05:21.531Z,1140
2017-04-07T16:06:34.268Z,1260
2017-04-07T16:07:47.529Z,1275
2017-04-07T16:09:00.801Z,1190
2017-04-07T16:10:14.117Z,1220
2017-04-07T16:11:27.383Z,1255
2017-04-07T16:12:40.647Z,1090
2017-04-07T16:13:53.420Z,1010
2017-04-07T16:15:06.196Z,985
2017-04-07T16:16:18.986Z,980
2017-04-07T16:17:32.245Z,1040
2017-04-07T16:18:45.542Z,1135
2017-04-07T16:19:58.296Z,1130
2017-04-07T16:21:11.535Z,1105
2017-04-07T16:22:25.493Z,1120
2017-04-07T16:23:38.876Z,1110
2017-04-07T16:24:51.591Z,930
2017-04-07T16:26:04.350Z,775
2017-04-07T16:27:17.188Z,730
2017-04-07T16:28:30.446Z,785
2017-04-07T16:29:43.681Z,860
2017-04-07T16:30:56.450Z,1010
2017-04-07T16:32:09.719Z,1200
2017-04-07T16:33:22.457Z,1125
2017-04-07T16:34:35.706Z,1065
2017-04-07T16:35:48.993Z,1030
2017-04-07T16:37:01.736Z,985
2017-04-07T16:38:15.005Z,890
2017-04-07T16:39:28.310Z,855
2017-04-07T16:40:41.596Z,850
2017-04-07T16:41:54.324Z,905
2017-04-07T16:43:07.583Z,965
2017-04-07T16:44:20.345Z,915
2017-04-07T16:45:33.604Z,830
2017-04-07T16:46:46.843Z,755
2017-04-07T16:47:59.593Z,665
2017-04-07T16:49:12.823Z,585
2017-04-07T16:50:26.095Z,540
2017-04-07T16:51:39.362Z,550
2017-04-07T16:52:52.620Z,590
2017-04-07T16:54:05.902Z,630
2017-04-07T16:55:19.148Z,660
2017-04-07T16:56:32.465Z,680
2017-04-07T16:57:45.699Z,705
2017-04-07T16:58:58.994Z,710
2017-04-07T17:00:11.736Z,660
2017-04-07T17:01:24.974Z,585
2017-04-07T17:02:38.248Z,540
2017-04-07T17:03:51.524Z,550
2017-04-07T17:05:04.244Z,605
2017-04-07T17:06:16.989Z,685
2017-04-07T17:07:30.262Z,695
2017-04-07T17:08:43.506Z,675
2017-04-07T17:09:56.822Z,755
2017-04-07T17:11:09.552Z,880
2017-04-07T17:12:22.843Z,1010
2017-04-07T17:13:36.135Z,1150
2017-04-07T17:14:49.414Z,1075
2017-04-07T17:16:02.671Z,915
2017-04-07T17:17:15.930Z,845
2017-04-07T17:18:28.675Z,820
2017-04-07T17:19:41.428Z,810
2017-04-07T17:20:54.682Z,760
2017-04-07T17:22:07.447Z,695
2017-04-07T17:23:20.722Z,665
2017-04-07T17:24:33.995Z,675